Time;durP1;ratioP1;P1;durP2;ratioP2;P2;SDS_P1;SDS_P2;PMS_P1;PMS_P2;Temp;Humidity;BMP_temperature;BMP_pressure;BME280_temperature;BME280_humidity;BME280_pressure;Samples;Min_cycle;Max_cycle;Signal;HPM_P1;HPM_P2
2021/05/27 00:02:53;;;;;;;1.83;0.70;;;16.20;99.90;;;;;;20609055;28;20250;-61
2021/05/27 00:12:58;;;;;;;0.60;0.50;;;15.70;99.90;;;;;;20667052;28;20214;-62
2021/05/27 00:23:01;;;;;;;0.73;0.63;;;15.60;99.90;;;;;;20689274;28;20219;-61
2021/05/27 00:33:05;;;;;;;0.47;0.43;;;15.60;99.90;;;;;;20640761;28;20672;-62
2021/05/27 00:43:09;;;;;;;0.53;0.47;;;15.70;99.90;;;;;;20610476;28;20294;-61
2021/05/27 00:53:13;;;;;;;0.40;0.40;;;15.60;99.90;;;;;;20618425;28;20561;-61
2021/05/27 01:03:16;;;;;;;0.80;0.60;;;15.50;99.90;;;;;;20624820;28;20247;-62
2021/05/27 01:13:21;;;;;;;0.60;0.60;;;15.60;99.90;;;;;;20623891;28;20200;-62
2021/05/27 01:23:27;;;;;;;0.20;0.00;;;15.60;99.90;;;;;;20621420;28;20224;-62
2021/05/27 01:33:30;;;;;;;0.93;0.70;;;15.80;99.90;;;;;;20621111;28;20565;-63
2021/05/27 01:43:34;;;;;;;7.30;2.53;;;15.70;99.90;;;;;;20603465;28;20583;-63
2021/05/27 01:53:37;;;;;;;0.63;0.60;;;15.60;99.90;;;;;;20622678;28;20207;-62
2021/05/27 02:03:42;;;;;;;0.40;0.27;;;15.90;99.90;;;;;;20629911;28;20250;-62
2021/05/27 02:13:45;;;;;;;1.37;0.90;;;15.90;99.90;;;;;;20681738;28;20207;-62
2021/05/27 02:23:53;;;;;;;0.20;0.03;;;15.90;99.90;;;;;;20699516;28;20234;-61
2021/05/27 02:33:56;;;;;;;1.70;1.00;;;16.40;99.90;;;;;;20635666;28;20211;-62
2021/05/27 02:44:00;;;;;;;4.10;0.47;;;16.40;99.90;;;;;;20616325;28;20250;-62
2021/05/27 02:54:04;;;;;;;0.20;0.10;;;16.30;99.90;;;;;;20615678;28;20196;-63
2021/05/27 03:04:08;;;;;;;0.43;0.40;;;16.20;99.90;;;;;;20613913;28;20326;-62
2021/05/27 03:14:11;;;;;;;2.23;1.20;;;16.30;99.90;;;;;;20680049;28;20211;-62
2021/05/27 03:24:14;;;;;;;0.20;0.10;;;15.90;99.90;;;;;;20693773;28;20241;-63
2021/05/27 03:34:17;;;;;;;0.63;0.30;;;15.90;99.90;;;;;;20630439;28;20198;-62
2021/05/27 03:44:22;;;;;;;0.40;0.40;;;15.60;99.90;;;;;;20595688;28;20227;-63
2021/05/27 03:54:25;;;;;;;0.50;0.40;;;15.40;99.90;;;;;;20592143;28;20215;-62
2021/05/27 04:25:10;;;;;;;2.40;1.00;;;15.10;99.90;;;;;;20697058;28;20238;-63
2021/05/27 04:35:13;;;;;;;0.40;0.40;;;15.30;99.90;;;;;;20638194;28;20206;-65
2021/05/27 04:45:17;;;;;;;6.90;0.73;;;15.50;99.90;;;;;;20628956;28;20222;-65
2021/05/27 04:55:21;;;;;;;0.20;0.10;;;15.60;99.90;;;;;;20628262;28;20215;-64
2021/05/27 05:05:26;;;;;;;0.77;0.30;;;16.00;99.90;;;;;;20626284;28;20234;-64
2021/05/27 05:15:31;;;;;;;9.33;1.27;;;16.10;99.90;;;;;;20701162;28;20241;-64
2021/05/27 05:25:36;;;;;;;0.93;0.40;;;16.20;99.90;;;;;;20705396;28;21047;-65
2021/05/27 05:35:41;;;;;;;0.80;0.80;;;16.50;99.90;;;;;;20613524;28;20200;-65
2021/05/27 05:45:46;;;;;;;1.17;0.87;;;17.00;99.90;;;;;;20622975;28;20714;-65
2021/05/27 05:55:52;;;;;;;0.60;0.50;;;17.30;99.90;;;;;;20620772;28;20196;-63
2021/05/27 06:05:56;;;;;;;3.03;1.17;;;17.50;99.90;;;;;;20619445;28;20235;-63
2021/05/27 06:15:59;;;;;;;1.33;0.60;;;17.70;99.90;;;;;;20698237;28;20199;-61
2021/05/27 06:26:03;;;;;;;0.73;0.73;;;17.70;99.90;;;;;;20699337;28;20700;-63
2021/05/27 06:36:07;;;;;;;0.20;0.20;;;17.80;99.90;;;;;;20604553;28;20934;-63
2021/05/27 06:46:12;;;;;;;3.30;1.17;;;17.90;99.90;;;;;;20612200;28;20680;-63
2021/05/27 06:56:15;;;;;;;0.83;0.67;;;18.20;99.90;;;;;;20616257;28;20195;-63
2021/05/27 07:06:19;;;;;;;2.03;0.87;;;18.40;99.90;;;;;;20620554;28;20264;-62
2021/05/27 07:16:22;;;;;;;15.30;0.57;;;18.80;99.90;;;;;;20540770;28;20191;-62
2021/05/27 07:26:27;;;;;;;1.80;0.40;;;19.00;99.90;;;;;;20611029;28;20231;-63
2021/05/27 07:36:30;;;;;;;2.53;1.23;;;19.30;99.90;;;;;;20534227;28;20196;-63
2021/05/27 07:46:34;;;;;;;2.50;0.57;;;19.00;99.90;;;;;;20528247;28;20224;-64
2021/05/27 07:56:37;;;;;;;2.27;1.20;;;19.10;99.90;;;;;;20530610;28;20203;-62
2021/05/27 08:06:42;;;;;;;0.87;0.87;;;19.10;99.90;;;;;;20591755;28;20241;-63
2021/05/27 08:16:46;;;;;;;1.73;1.63;;;19.00;99.90;;;;;;20691222;28;20199;-63
2021/05/27 08:26:50;;;;;;;3.27;2.27;;;19.00;99.90;;;;;;20689984;28;20226;-64
2021/05/27 08:36:53;;;;;;;2.00;1.30;;;18.90;99.90;;;;;;20610162;28;20203;-63
2021/05/27 08:46:57;;;;;;;1.20;0.97;;;19.40;99.90;;;;;;20608301;28;20231;-67
2021/05/27 08:57:04;;;;;;;0.73;0.40;;;19.80;99.90;;;;;;20607599;28;20195;-64
2021/05/27 09:07:11;;;;;;;0.60;0.60;;;19.70;99.90;;;;;;20616411;28;20373;-64
2021/05/27 09:17:14;;;;;;;2.43;1.70;;;19.90;99.90;;;;;;20701085;28;20199;-65
2021/05/27 09:27:45;;;;;;;1.30;1.23;;;20.30;99.90;;;;;;20696183;28;20216;-65
2021/05/27 09:37:51;;;;;;;5.63;1.20;;;20.50;99.90;;;;;;20622449;28;20527;-65
2021/05/27 09:47:55;;;;;;;3.17;2.20;;;20.10;99.90;;;;;;20611972;28;20310;-64
2021/05/27 09:58:07;;;;;;;3.17;1.80;;;20.50;99.90;;;;;;20603810;28;20196;-64
2021/05/27 10:08:11;;;;;;;4.10;0.83;;;20.40;99.90;;;;;;20618599;28;20239;-59
2021/05/27 10:18:34;;;;;;;1.80;1.70;;;20.50;99.90;;;;;;20618536;28;20350;-64
2021/05/27 10:28:45;;;;;;;3.97;1.50;;;20.70;99.90;;;;;;20615223;28;20315;-63
2021/05/27 10:38:50;;;;;;;2.63;1.70;;;21.40;99.90;;;;;;20615635;28;20210;-64
2021/05/27 10:48:54;;;;;;;1.43;0.93;;;21.30;99.90;;;;;;20615122;28;20250;-63
2021/05/27 10:59:07;;;;;;;1.13;0.83;;;21.70;99.90;;;;;;20597149;28;20290;-64
2021/05/27 11:09:34;;;;;;;2.07;1.73;;;21.90;99.90;;;;;;20643188;28;20571;-65
2021/05/27 11:19:47;;;;;;;3.63;1.60;;;21.90;99.90;;;;;;20692240;28;20648;-63
2021/05/27 11:30:16;;;;;;;4.97;1.33;;;23.90;99.90;;;;;;20669413;28;20210;-64
2021/05/27 11:40:22;;;;;;;1.23;1.02;;;24.10;99.90;;;;;;20591381;28;20688;-64
2021/05/27 11:50:26;;;;;;;5.57;2.15;;;25.10;99.90;;;;;;20610654;28;20611;-62
2021/05/27 12:00:29;;;;;;;0.80;0.80;;;25.90;99.90;;;;;;20574594;28;20334;-63
2021/05/27 12:10:34;;;;;;;5.15;1.70;;;25.60;99.90;;;;;;20654444;28;20560;-64
2021/05/27 12:20:39;;;;;;;2.03;1.48;;;25.80;99.90;;;;;;20673859;28;20687;-67
2021/05/27 12:30:45;;;;;;;1.88;1.33;;;25.80;99.90;;;;;;20655725;28;20765;-64
2021/05/27 12:40:50;;;;;;;5.18;2.75;;;26.40;99.90;;;;;;20605250;28;20239;-63
2021/05/27 12:51:05;;;;;;;5.97;1.73;;;26.60;99.90;;;;;;20618549;28;20227;-64
2021/05/27 13:01:09;;;;;;;3.08;0.73;;;26.60;99.90;;;;;;20606198;28;20246;-64
2021/05/27 13:11:31;;;;;;;0.30;0.20;;;26.20;99.90;;;;;;20665724;28;20282;-65
2021/05/27 13:21:48;;;;;;;2.15;0.55;;;25.90;99.90;;;;;;20685975;28;20237;-62
2021/05/27 13:31:52;;;;;;;1.52;1.42;;;25.00;99.90;;;;;;20659687;28;20204;-64
2021/05/27 13:41:55;;;;;;;0.93;0.57;;;26.30;99.90;;;;;;20621916;28;20231;-63
2021/05/27 13:52:06;;;;;;;0.47;0.47;;;24.50;99.90;;;;;;20621848;28;20196;-63
2021/05/27 14:02:10;;;;;;;0.77;0.77;;;24.20;99.90;;;;;;20617723;28;20231;-65
2021/05/27 14:12:14;;;;;;;2.20;1.00;;;26.10;99.90;;;;;;20671775;28;20203;-62
2021/05/27 14:22:17;;;;;;;2.55;0.38;;;27.80;99.90;;;;;;20679631;28;20714;-61
2021/05/27 14:32:21;;;;;;;0.45;0.40;;;28.60;99.90;;;;;;20652928;28;20683;-65
2021/05/27 14:42:24;;;;;;;4.90;0.68;;;28.10;99.90;;;;;;20614724;28;20250;-62
2021/05/27 14:52:29;;;;;;;6.95;0.60;;;28.40;99.90;;;;;;20617370;28;20661;-62
2021/05/27 15:02:34;;;;;;;1.20;0.30;;;28.60;99.90;;;;;;20611303;28;20591;-63
2021/05/27 15:12:39;;;;;;;1.85;0.57;;;28.00;99.90;;;;;;20650557;28;20191;-63
2021/05/27 15:22:42;;;;;;;0.20;0.20;;;27.90;99.90;;;;;;20689432;28;20230;-64
2021/05/27 15:32:46;;;;;;;4.47;1.13;;;27.70;99.90;;;;;;20642720;28;20651;-64
2021/05/27 15:42:50;;;;;;;0.73;0.73;;;26.40;99.90;;;;;;20609394;28;20230;-64
2021/05/27 15:52:55;;;;;;;0.20;0.10;;;26.00;99.90;;;;;;20610661;28;20291;-65
2021/05/27 16:02:59;;;;;;;1.40;0.65;;;26.70;99.90;;;;;;20610154;28;20235;-65
2021/05/27 16:13:06;;;;;;;0.50;0.50;;;25.60;99.90;;;;;;20668017;28;20198;-63
2021/05/27 16:23:09;;;;;;;7.93;0.35;;;24.60;99.90;;;;;;20682038;28;20230;-65
2021/05/27 16:33:13;;;;;;;0.55;0.50;;;23.50;99.90;;;;;;20654454;28;20203;-65
2021/05/27 16:43:17;;;;;;;1.03;0.30;;;23.50;99.90;;;;;;20623924;28;20234;-65
2021/05/27 16:53:22;;;;;;;0.60;0.40;;;23.80;99.90;;;;;;20623707;28;20716;-65
2021/05/27 17:03:25;;;;;;;0.43;0.43;;;25.80;99.90;;;;;;20623379;28;20235;-65
2021/05/27 17:13:29;;;;;;;0.20;0.20;;;26.30;99.90;;;;;;20668363;28;20274;-63
2021/05/27 17:23:32;;;;;;;0.20;0.20;;;24.70;99.90;;;;;;20704365;28;20218;-63
2021/05/27 17:33:36;;;;;;;0.32;0.32;;;25.70;99.90;;;;;;20626684;28;20757;-63
2021/05/27 17:43:39;;;;;;;0.82;0.82;;;25.60;99.90;;;;;;20616904;28;20219;-65
2021/05/27 17:53:43;;;;;;;0.20;0.15;;;25.00;99.90;;;;;;20603398;28;20191;-65
2021/05/27 18:03:46;;;;;;;0.77;0.43;;;25.10;99.90;;;;;;20626377;28;20241;-65
2021/05/27 18:13:50;;;;;;;0.43;0.25;;;24.10;99.90;;;;;;20623350;28;20195;-65
2021/05/27 18:23:52;;;;;;;0.20;0.00;;;24.10;99.90;;;;;;20626958;28;20231;-65
2021/05/27 18:33:56;;;;;;;0.20;0.00;;;23.20;99.90;;;;;;20617023;28;20203;-67
2021/05/27 18:44:00;;;;;;;0.73;0.73;;;21.90;99.90;;;;;;20615387;28;20245;-62
2021/05/27 18:54:05;;;;;;;0.50;0.30;;;21.50;99.90;;;;;;20615173;28;20203;-66
2021/05/27 19:04:08;;;;;;;0.20;0.10;;;20.80;99.90;;;;;;20614081;28;20235;-66
2021/05/27 19:14:12;;;;;;;0.20;0.03;;;20.50;99.90;;;;;;20623908;28;20196;-65
2021/05/27 19:24:16;;;;;;;0.20;0.20;;;20.20;99.90;;;;;;20614121;28;20235;-64
2021/05/27 19:34:22;;;;;;;0.20;0.20;;;20.10;99.90;;;;;;20611786;28;20194;-66
2021/05/27 19:44:25;;;;;;;2.27;0.57;;;19.90;99.90;;;;;;20612912;28;20257;-63
2021/05/27 19:54:29;;;;;;;0.70;0.70;;;19.60;99.90;;;;;;20609517;28;20195;-65
2021/05/27 20:04:32;;;;;;;2.97;0.47;;;19.50;99.90;;;;;;20611504;28;20237;-66
2021/05/27 20:14:38;;;;;;;1.17;1.07;;;19.30;99.90;;;;;;20592546;28;20195;-66
2021/05/27 20:24:42;;;;;;;0.20;0.20;;;19.10;99.90;;;;;;20612711;28;20706;-66
2021/05/27 20:34:46;;;;;;;1.40;0.40;;;19.20;99.90;;;;;;20610670;28;20215;-66
2021/05/27 20:44:49;;;;;;;0.63;0.40;;;19.00;99.90;;;;;;20610879;28;20231;-64
2021/05/27 20:54:54;;;;;;;0.20;0.10;;;18.90;99.90;;;;;;20608406;28;20278;-64
2021/05/27 21:04:58;;;;;;;0.43;0.40;;;19.00;99.90;;;;;;20609685;28;20626;-64
2021/05/27 21:15:03;;;;;;;0.20;0.10;;;19.10;99.90;;;;;;20604357;28;20191;-64
2021/05/27 21:25:08;;;;;;;0.20;0.10;;;19.00;99.90;;;;;;20617424;28;20712;-64
2021/05/27 21:35:12;;;;;;;0.30;0.30;;;18.80;99.90;;;;;;20621530;28;20200;-64
2021/05/27 21:45:16;;;;;;;0.30;0.30;;;18.70;99.90;;;;;;20621475;28;20235;-64
2021/05/27 21:55:20;;;;;;;6.20;0.43;;;18.60;99.90;;;;;;20619955;28;20248;-64
2021/05/27 22:05:23;;;;;;;1.37;1.10;;;19.00;99.90;;;;;;20602427;28;20904;-64
2021/05/27 22:15:31;;;;;;;0.40;0.40;;;19.20;99.90;;;;;;20617142;28;20196;-63
2021/05/27 22:25:36;;;;;;;1.07;0.50;;;19.30;99.90;;;;;;20600525;28;20642;-63
2021/05/27 22:35:40;;;;;;;1.13;0.40;;;19.30;99.90;;;;;;20618682;28;20192;-63
2021/05/27 22:45:43;;;;;;;12.93;1.07;;;19.20;99.90;;;;;;20599070;28;20223;-63
2021/05/27 22:55:47;;;;;;;0.67;0.47;;;19.20;99.90;;;;;;20616847;28;20200;-63
2021/05/27 23:05:50;;;;;;;0.40;0.30;;;18.90;99.90;;;;;;20597258;28;20234;-62
2021/05/27 23:15:54;;;;;;;1.87;1.30;;;19.20;99.90;;;;;;20615145;28;20553;-63
2021/05/27 23:25:58;;;;;;;0.37;0.37;;;19.40;99.90;;;;;;20596528;28;20227;-64
2021/05/27 23:36:03;;;;;;;0.20;0.20;;;19.50;99.90;;;;;;20612152;28;20203;-63
2021/05/27 23:46:06;;;;;;;6.13;0.53;;;19.60;99.90;;;;;;20612785;28;20228;-64
2021/05/27 23:56:10;;;;;;;12.73;0.77;;;19.60;99.90;;;;;;20613639;28;20207;-64
